createdAt,value
2023-01-21T00:03:23.141Z,6.53
2023-01-21T00:07:26.019Z,5.93
2023-01-21T00:11:27.921Z,6.07
2023-01-21T00:15:29.799Z,5.57
2023-01-21T00:19:32.093Z,5.93
2023-01-21T00:23:33.794Z,6.53
2023-01-21T00:27:35.521Z,6.40
2023-01-21T00:31:37.436Z,6.73
2023-01-21T00:35:39.263Z,6.27
2023-01-21T00:39:42.993Z,7.07
2023-01-21T00:43:44.937Z,6.43
2023-01-21T00:47:48.451Z,6.80
2023-01-21T00:51:50.219Z,5.60
2023-01-21T00:55:52.037Z,6.77
2023-01-21T00:59:53.963Z,6.93
2023-01-21T01:03:55.755Z,7.67
2023-01-21T01:07:57.572Z,8.13
2023-01-21T01:11:59.522Z,8.60
2023-01-21T01:16:02.613Z,9.50
2023-01-21T01:20:08.325Z,9.00
2023-01-21T01:24:10.069Z,6.80
2023-01-21T01:28:11.902Z,6.20
2023-01-21T01:32:13.894Z,7.13
2023-01-21T01:36:27.503Z,8.40
2023-01-21T01:40:40.887Z,7.57
2023-01-21T01:45:00.785Z,7.87
2023-01-21T01:49:17.695Z,8.17
2023-01-21T01:53:19.807Z,8.07
2023-01-21T01:57:23.790Z,7.77
2023-01-21T02:01:25.565Z,7.77
2023-01-21T02:05:27.438Z,7.93
2023-01-21T02:09:30.066Z,7.70
2023-01-21T02:13:31.972Z,7.80
2023-01-21T02:18:18.261Z,7.97
2023-01-21T02:23:04.687Z,8.67
2023-01-21T02:27:36.819Z,8.80
2023-01-21T02:31:53.389Z,8.27
2023-01-21T02:36:13.895Z,9.87
2023-01-21T02:40:21.007Z,8.80
2023-01-21T02:44:49.727Z,8.30
2023-01-21T02:49:07.471Z,9.60
2023-01-21T02:53:27.375Z,8.70
2023-01-21T02:57:46.108Z,9.63
2023-01-21T03:02:15.773Z,6.80
2023-01-21T03:06:39.158Z,8.43
2023-01-21T03:10:44.705Z,8.47
2023-01-21T03:15:19.546Z,8.97
2023-01-21T03:19:21.369Z,8.50
2023-01-21T03:23:28.786Z,8.03
2023-01-21T03:27:30.985Z,7.30
2023-01-21T03:31:34.267Z,7.80
2023-01-21T03:35:42.188Z,7.27
2023-01-21T03:40:15.420Z,7.13
2023-01-21T03:44:18.910Z,6.77
2023-01-21T03:48:43.150Z,7.03
2023-01-21T03:52:45.224Z,6.33
2023-01-21T03:56:47.130Z,6.23
2023-01-21T04:00:49.414Z,6.90
2023-01-21T04:04:53.226Z,6.60
2023-01-21T04:08:54.973Z,6.60
2023-01-21T04:12:56.784Z,6.33
2023-01-21T04:16:58.566Z,6.10
2023-01-21T04:21:01.659Z,5.80
2023-01-21T04:25:05.196Z,6.37
2023-01-21T04:29:06.941Z,6.63
2023-01-21T04:33:08.735Z,8.23
2023-01-21T04:37:16.353Z,7.93
2023-01-21T04:41:18.073Z,8.03
2023-01-21T04:45:19.937Z,7.70
2023-01-21T04:49:21.647Z,7.50
2023-01-21T04:53:23.521Z,7.70
2023-01-21T04:57:28.384Z,7.53
2023-01-21T05:01:30.257Z,6.67
2023-01-21T05:05:32.145Z,6.57
2023-01-21T05:09:33.959Z,6.43
2023-01-21T05:13:35.895Z,6.10
2023-01-21T05:17:37.666Z,5.53
2023-01-21T05:21:39.434Z,5.53
2023-01-21T05:25:43.440Z,5.83
2023-01-21T05:29:45.231Z,6.63
2023-01-21T05:33:47.259Z,7.87
2023-01-21T05:37:49.044Z,7.77
2023-01-21T05:41:50.778Z,7.33
2023-01-21T05:45:55.241Z,8.37
2023-01-21T05:49:57.165Z,6.30
2023-01-21T05:53:58.950Z,7.50
2023-01-21T05:58:00.722Z,7.97
2023-01-21T06:02:02.508Z,7.70
2023-01-21T06:06:04.710Z,8.23
2023-01-21T06:10:07.901Z,8.30
2023-01-21T06:14:09.934Z,7.10
2023-01-21T06:18:22.813Z,7.17
2023-01-21T06:22:25.425Z,8.20
2023-01-21T06:26:29.645Z,8.80
2023-01-21T06:30:31.454Z,8.43
2023-01-21T06:34:33.341Z,8.50
2023-01-21T06:38:36.174Z,8.80
2023-01-21T06:42:38.112Z,9.53
2023-01-21T06:46:43.494Z,8.43
2023-01-21T06:50:51.808Z,7.43
2023-01-21T06:55:06.884Z,8.73
2023-01-21T06:59:11.226Z,8.40
2023-01-21T07:03:15.491Z,7.00
2023-01-21T07:07:17.808Z,7.40
2023-01-21T07:11:19.784Z,6.73
2023-01-21T07:15:21.690Z,6.83
2023-01-21T07:19:50.233Z,6.90
2023-01-21T07:23:55.520Z,7.63
2023-01-21T07:28:03.435Z,7.50
2023-01-21T07:36:21.288Z,7.00
2023-01-21T07:40:23.142Z,7.07
2023-01-21T07:44:24.950Z,7.10
2023-01-21T07:48:27.156Z,7.63
2023-01-21T07:52:33.573Z,6.70
2023-01-21T07:56:40.259Z,7.57
2023-01-21T08:00:42.386Z,7.40
2023-01-21T08:04:45.460Z,6.03
2023-01-21T08:08:53.332Z,7.67
2023-01-21T08:12:57.778Z,7.30
2023-01-21T08:17:00.669Z,8.40
2023-01-21T08:21:02.599Z,8.00
2023-01-21T08:25:18.410Z,7.90
2023-01-21T08:29:20.331Z,7.10
2023-01-21T08:33:22.214Z,7.53
2023-01-21T08:37:25.206Z,8.17
2023-01-21T08:41:27.019Z,7.83
2023-01-21T08:45:29.276Z,8.17
2023-01-21T08:49:31.170Z,7.93
2023-01-21T08:53:33.471Z,8.40
2023-01-21T08:57:58.606Z,8.37
2023-01-21T09:02:04.322Z,7.57
2023-01-21T09:06:09.199Z,7.90
2023-01-21T09:10:12.665Z,7.80
2023-01-21T09:14:20.949Z,8.17
2023-01-21T09:18:22.916Z,8.33
2023-01-21T09:22:25.972Z,7.70
2023-01-21T09:26:27.910Z,8.47
2023-01-21T09:30:32.382Z,8.97
2023-01-21T09:34:35.866Z,8.13
2023-01-21T09:38:37.993Z,7.63
2023-01-21T09:42:42.798Z,8.63
2023-01-21T09:47:25.705Z,7.77
2023-01-21T09:51:52.618Z,8.20
2023-01-21T09:56:07.269Z,8.80
2023-01-21T10:06:27.717Z,8.47
2023-01-21T10:10:59.129Z,8.70
2023-01-21T10:15:17.647Z,8.60
2023-01-21T10:19:24.163Z,8.13
2023-01-21T10:23:39.543Z,7.43
2023-01-21T10:27:42.288Z,8.40
2023-01-21T10:31:50.264Z,9.13
2023-01-21T10:36:49.840Z,8.90
2023-01-21T10:46:11.781Z,8.40
2023-01-21T10:50:58.855Z,8.00
2023-01-21T10:55:44.125Z,8.17
2023-01-21T11:00:33.220Z,8.80
2023-01-21T11:05:01.788Z,8.07
2023-01-21T11:09:23.520Z,8.40
2023-01-21T11:18:46.013Z,7.93
2023-01-21T11:28:04.505Z,7.53
2023-01-21T11:32:49.561Z,7.47
2023-01-21T11:41:44.869Z,7.13
2023-01-21T11:46:00.702Z,7.63
2023-01-21T11:50:49.231Z,7.57
2023-01-21T11:55:20.797Z,7.13
2023-01-21T12:00:02.709Z,8.10
2023-01-21T12:04:08.580Z,7.90
2023-01-21T12:08:39.600Z,7.67
2023-01-21T12:13:42.373Z,7.80
2023-01-21T12:17:55.723Z,8.07
2023-01-21T12:22:11.812Z,8.50
2023-01-21T12:26:41.551Z,6.57
2023-01-21T12:31:32.748Z,7.07
2023-01-21T12:35:39.372Z,7.30
2023-01-21T12:39:41.268Z,8.00
2023-01-21T12:44:24.836Z,7.67
2023-01-21T12:48:56.646Z,7.40
2023-01-21T12:53:21.062Z,6.50
2023-01-21T12:57:51.908Z,6.47
2023-01-21T13:02:05.695Z,8.00
2023-01-21T13:06:18.213Z,6.13
2023-01-21T13:10:52.946Z,7.63
2023-01-21T13:15:17.755Z,7.63
2023-01-21T13:19:22.981Z,7.47
2023-01-21T13:23:48.628Z,7.07
2023-01-21T13:28:30.422Z,7.37
2023-01-21T13:33:20.309Z,8.20
2023-01-21T13:37:33.477Z,7.70
2023-01-21T13:42:27.012Z,7.93
2023-01-21T13:46:55.202Z,7.67
2023-01-21T13:51:30.748Z,9.27
2023-01-21T13:56:04.057Z,8.37
2023-01-21T14:00:12.887Z,7.73
2023-01-21T14:04:52.280Z,8.10
2023-01-21T14:09:06.907Z,7.13
2023-01-21T14:13:41.856Z,7.07
2023-01-21T14:17:46.378Z,7.57
2023-01-21T14:22:11.899Z,7.40
2023-01-21T14:26:39.930Z,7.43
2023-01-21T14:30:43.585Z,8.00
2023-01-21T14:35:20.764Z,6.80
2023-01-21T14:39:27.224Z,7.70
2023-01-21T14:43:50.998Z,7.70
2023-01-21T14:47:57.792Z,6.93
2023-01-21T14:52:05.554Z,7.20
2023-01-21T14:56:27.231Z,7.37
2023-01-21T15:00:34.491Z,7.47
2023-01-21T15:04:41.226Z,6.43
2023-01-21T15:08:56.653Z,6.73
2023-01-21T15:39:21.612Z,6.50
2023-01-21T15:44:02.160Z,6.30
2023-01-21T15:48:52.934Z,5.63
2023-01-21T15:53:43.194Z,5.47
2023-01-21T16:03:31.131Z,5.83
2023-01-21T16:08:08.882Z,5.80
2023-01-21T16:12:50.706Z,6.90
2023-01-21T16:17:37.684Z,6.20
2023-01-21T16:22:06.826Z,5.60
2023-01-21T16:26:40.150Z,5.67
2023-01-21T16:31:03.722Z,5.50
2023-01-21T16:35:14.593Z,9.90
2023-01-21T16:39:19.276Z,9.77
2023-01-21T16:52:41.784Z,5.50
2023-01-21T17:11:16.973Z,4.50
2023-01-21T17:16:42.523Z,4.40
2023-01-21T17:42:21.592Z,3.00
2023-01-21T17:46:28.271Z,2.60
2023-01-21T17:50:33.337Z,2.90
2023-01-21T19:55:23.158Z,2.13
2023-01-21T19:59:40.059Z,1.80
2023-01-21T20:04:27.484Z,2.37
2023-01-21T20:08:52.144Z,2.50
2023-01-21T20:17:21.846Z,2.30
2023-01-21T20:21:28.767Z,2.30
2023-01-21T20:25:43.822Z,2.47
2023-01-21T20:30:02.955Z,2.10
2023-01-21T20:38:59.096Z,2.60
2023-01-21T20:43:13.805Z,2.20
2023-01-21T20:47:37.691Z,2.07
2023-01-21T20:51:40.915Z,2.30
2023-01-21T20:56:18.668Z,2.37
2023-01-21T21:00:24.289Z,2.23
2023-01-21T21:04:35.888Z,2.70
2023-01-21T21:08:52.399Z,2.60
2023-01-21T21:12:55.707Z,2.43
2023-01-21T21:17:00.113Z,2.70
2023-01-21T21:21:16.267Z,2.70
2023-01-21T21:25:20.703Z,2.53
2023-01-21T21:29:22.795Z,2.97
2023-01-21T21:33:29.042Z,3.27
2023-01-21T21:37:31.016Z,2.83
2023-01-21T21:41:51.730Z,2.90
2023-01-21T21:46:12.083Z,2.70
2023-01-21T21:50:18.943Z,2.60
2023-01-21T21:54:21.064Z,2.33
2023-01-21T21:58:22.945Z,2.80
2023-01-21T22:02:24.880Z,2.70
2023-01-21T22:06:26.858Z,3.03
2023-01-21T22:10:28.762Z,3.40
2023-01-21T22:14:30.541Z,3.00
2023-01-21T22:18:32.674Z,3.00
2023-01-21T22:22:34.445Z,3.40
2023-01-21T22:26:36.285Z,3.70
2023-01-21T22:30:38.367Z,3.00
2023-01-21T22:34:44.091Z,3.23
2023-01-21T22:38:45.913Z,3.10
2023-01-21T22:42:47.686Z,2.73
2023-01-21T22:46:49.496Z,3.00
2023-01-21T22:50:55.951Z,3.17
2023-01-21T22:54:57.745Z,2.67
2023-01-21T22:58:59.856Z,3.43
2023-01-21T23:03:01.606Z,3.00
2023-01-21T23:07:03.425Z,3.37
2023-01-21T23:11:07.101Z,2.97
2023-01-21T23:15:09.552Z,2.60
2023-01-21T23:19:12.243Z,2.70
2023-01-21T23:23:14.127Z,3.07
2023-01-21T23:27:15.860Z,2.80
2023-01-21T23:31:17.983Z,3.00
2023-01-21T23:35:19.858Z,3.17
2023-01-21T23:39:21.628Z,2.50
2023-01-21T23:43:26.975Z,2.67
2023-01-21T23:47:28.818Z,2.43
2023-01-21T23:51:30.617Z,3.03
2023-01-21T23:55:32.397Z,2.93
2023-01-21T23:59:35.732Z,3.10
